Time;durP1;ratioP1;P1;durP2;ratioP2;P2;SDS_P1;SDS_P2;PMS_P1;PMS_P2;Temp;Humidity;BMP_temperature;BMP_pressure;BME280_temperature;BME280_humidity;BME280_pressure;Samples;Min_cycle;Max_cycle;Signal;HPM_P1;HPM_P2
2021/06/28 00:00:32;;;;;;;2.08;1.13;;;25.60;56.60;;;;;;5013905;28;20030;-64
2021/06/28 00:02:59;;;;;;;1.15;1.00;;;25.70;56.80;;;;;;5010376;28;20022;-62
2021/06/28 00:05:25;;;;;;;1.38;1.20;;;25.60;56.80;;;;;;5016589;28;20057;-63
2021/06/28 00:07:51;;;;;;;1.83;1.00;;;25.70;56.90;;;;;;5006598;28;20400;-63
2021/06/28 00:10:23;;;;;;;1.50;0.90;;;25.60;56.90;;;;;;5012851;28;20095;-64
2021/06/28 00:12:50;;;;;;;1.33;1.00;;;25.60;57.00;;;;;;5014183;28;20426;-63
2021/06/28 00:15:19;;;;;;;1.25;1.10;;;25.60;57.00;;;;;;5009843;28;20017;-63
2021/06/28 00:17:46;;;;;;;3.13;1.02;;;25.70;57.10;;;;;;5014606;28;20029;-63
2021/06/28 00:20:13;;;;;;;1.88;1.23;;;25.70;57.10;;;;;;5029299;28;20053;-63
2021/06/28 00:22:40;;;;;;;1.15;1.05;;;25.70;57.20;;;;;;5015472;28;20061;-65
2021/06/28 00:25:11;;;;;;;3.00;1.10;;;25.60;57.10;;;;;;5015904;28;20038;-64
2021/06/28 00:27:37;;;;;;;;;;;25.70;57.20;;;;;;5015130;28;20042;-65
2021/06/28 00:30:08;;;;;;;1.60;0.90;;;25.70;57.30;;;;;;5013905;28;19971;-65
2021/06/28 00:32:34;;;;;;;2.97;1.00;;;25.60;57.30;;;;;;5014615;28;20038;-63
2021/06/28 00:35:01;;;;;;;2.63;1.08;;;25.60;57.40;;;;;;5014238;28;20468;-63
2021/06/28 00:37:26;;;;;;;1.00;0.80;;;25.60;57.40;;;;;;5009866;28;20041;-64
2021/06/28 00:39:52;;;;;;;1.98;1.10;;;25.60;57.50;;;;;;5002441;28;20034;-62
2021/06/28 00:42:18;;;;;;;1.38;0.98;;;25.60;57.50;;;;;;5003031;28;20454;-62
2021/06/28 00:44:44;;;;;;;2.28;1.08;;;25.60;57.40;;;;;;5007799;28;20362;-65
2021/06/28 00:47:10;;;;;;;1.38;0.90;;;25.70;57.60;;;;;;5005115;28;20142;-65
2021/06/28 00:49:35;;;;;;;1.20;1.10;;;25.70;57.50;;;;;;5001125;28;20031;-65
2021/06/28 00:52:01;;;;;;;2.15;1.17;;;25.70;57.50;;;;;;5001922;28;20495;-63
2021/06/28 00:54:27;;;;;;;3.00;0.80;;;25.70;57.40;;;;;;5007222;28;20030;-64
2021/06/28 00:56:53;;;;;;;2.85;1.08;;;25.70;57.50;;;;;;5001132;28;20084;-64
2021/06/28 00:59:20;;;;;;;1.30;1.20;;;25.70;57.70;;;;;;5007362;28;20026;-64
2021/06/28 01:01:46;;;;;;;1.60;1.00;;;25.70;57.80;;;;;;5011906;28;20383;-64
2021/06/28 01:04:11;;;;;;;2.05;1.42;;;25.70;57.80;;;;;;5007224;28;20037;-64
2021/06/28 01:06:37;;;;;;;1.67;1.05;;;25.80;58.00;;;;;;5005821;28;20030;-64
2021/06/28 01:09:03;;;;;;;2.10;0.88;;;25.80;58.00;;;;;;5002627;28;20034;-64
2021/06/28 01:11:29;;;;;;;2.42;0.90;;;25.80;58.00;;;;;;5007858;28;20034;-64
2021/06/28 01:13:55;;;;;;;3.75;1.00;;;25.80;58.00;;;;;;5008758;28;20056;-66
2021/06/28 01:16:22;;;;;;;1.45;1.05;;;25.80;58.10;;;;;;5008627;28;20037;-64
2021/06/28 01:18:47;;;;;;;1.77;1.00;;;25.80;58.10;;;;;;5005185;28;20376;-64
2021/06/28 01:21:14;;;;;;;1.10;0.70;;;25.80;58.10;;;;;;5005059;28;20034;-64
2021/06/28 01:23:40;;;;;;;4.00;1.30;;;25.80;58.10;;;;;;5003372;28;20117;-64
2021/06/28 01:26:08;;;;;;;1.45;1.20;;;25.80;58.10;;;;;;5000398;28;20102;-64
2021/06/28 01:28:35;;;;;;;1.33;1.00;;;25.80;58.20;;;;;;5010076;28;20133;-64
2021/06/28 01:31:05;;;;;;;1.48;1.10;;;25.80;58.30;;;;;;5012791;28;20029;-64
2021/06/28 01:33:31;;;;;;;1.20;0.98;;;25.80;58.30;;;;;;5014170;28;20089;-64
2021/06/28 01:35:57;;;;;;;1.92;1.15;;;25.80;58.30;;;;;;5013396;28;20034;-66
2021/06/28 01:38:23;;;;;;;1.63;1.02;;;25.80;58.50;;;;;;5013512;28;20114;-62
2021/06/28 01:40:50;;;;;;;1.00;0.93;;;25.80;58.50;;;;;;5045819;28;20386;-64
2021/06/28 01:43:16;;;;;;;1.70;1.00;;;25.80;58.50;;;;;;5012764;28;20130;-64
2021/06/28 01:45:44;;;;;;;1.30;1.10;;;25.80;58.50;;;;;;5013462;28;20065;-64
2021/06/28 01:48:09;;;;;;;1.70;1.10;;;25.80;58.60;;;;;;5013162;28;20064;-64
2021/06/28 01:50:36;;;;;;;1.48;1.10;;;25.80;58.60;;;;;;5013216;28;20120;-66
2021/06/28 01:53:03;;;;;;;4.50;1.33;;;25.80;58.60;;;;;;5013009;28;20050;-64
2021/06/28 01:55:29;;;;;;;2.45;1.15;;;25.80;58.60;;;;;;5012972;28;20081;-64
2021/06/28 01:57:58;;;;;;;1.35;1.08;;;25.80;58.60;;;;;;5013638;28;20443;-64
2021/06/28 02:00:39;;;;;;;1.35;1.00;;;25.80;58.70;;;;;;5012978;28;20037;-64
2021/06/28 02:03:10;;;;;;;1.65;1.30;;;25.80;58.80;;;;;;5012528;28;20057;-64
2021/06/28 02:05:42;;;;;;;1.33;1.10;;;25.80;58.90;;;;;;5013452;28;20026;-64
2021/06/28 02:08:09;;;;;;;1.35;1.20;;;25.80;58.90;;;;;;5012412;28;20026;-64
2021/06/28 02:10:36;;;;;;;1.50;1.30;;;25.80;58.80;;;;;;5012648;28;20468;-64
2021/06/28 02:13:03;;;;;;;0.98;0.90;;;25.80;58.90;;;;;;5012463;28;20410;-65
2021/06/28 02:15:30;;;;;;;1.27;1.17;;;25.70;58.80;;;;;;5013159;28;20113;-65
2021/06/28 02:18:00;;;;;;;1.45;1.08;;;25.70;58.80;;;;;;5004824;28;20030;-64
2021/06/28 02:20:27;;;;;;;1.50;1.00;;;25.70;58.80;;;;;;5013266;28;20040;-64
2021/06/28 02:22:53;;;;;;;1.40;1.20;;;25.70;58.80;;;;;;5044196;28;20041;-64
2021/06/28 02:25:20;;;;;;;1.40;1.15;;;25.70;58.80;;;;;;5012286;28;20291;-64
2021/06/28 02:27:46;;;;;;;1.52;1.10;;;25.70;58.90;;;;;;5013021;28;20041;-64
2021/06/28 02:30:15;;;;;;;1.42;1.10;;;25.70;59.00;;;;;;5012078;28;20026;-64
2021/06/28 02:32:42;;;;;;;1.08;0.90;;;25.70;59.10;;;;;;5012299;28;20051;-64
2021/06/28 02:35:10;;;;;;;1.50;1.08;;;25.70;59.10;;;;;;5012282;28;20029;-64
2021/06/28 02:37:37;;;;;;;3.33;1.15;;;25.70;59.80;;;;;;5012965;28;20095;-64
2021/06/28 02:40:05;;;;;;;1.70;1.20;;;25.70;59.10;;;;;;5011785;28;20034;-65
2021/06/28 02:42:31;;;;;;;1.70;1.15;;;25.80;59.30;;;;;;5012245;28;20034;-64
2021/06/28 02:44:57;;;;;;;1.73;1.20;;;25.70;59.80;;;;;;5012245;28;20471;-64
2021/06/28 02:47:22;;;;;;;1.83;1.42;;;25.70;59.10;;;;;;5012249;28;20451;-64
2021/06/28 02:49:48;;;;;;;1.52;1.10;;;25.70;59.10;;;;;;5012520;28;20033;-64
2021/06/28 02:52:13;;;;;;;1.55;1.20;;;25.70;59.10;;;;;;5011755;28;20060;-64
2021/06/28 02:54:39;;;;;;;1.95;1.02;;;25.70;59.00;;;;;;5011539;28;20038;-64
2021/06/28 02:57:05;;;;;;;1.48;1.10;;;25.70;59.10;;;;;;5011482;28;20058;-65
2021/06/28 02:59:31;;;;;;;1.33;1.17;;;25.70;59.20;;;;;;5012119;28;20033;-64
2021/06/28 03:01:57;;;;;;;3.05;1.30;;;25.70;59.10;;;;;;5011894;28;20026;-64
2021/06/28 03:04:22;;;;;;;1.30;1.20;;;25.70;59.10;;;;;;5011195;28;20484;-64
2021/06/28 03:06:48;;;;;;;2.67;1.30;;;25.70;59.10;;;;;;5011652;28;20033;-64
2021/06/28 03:09:13;;;;;;;3.20;1.15;;;25.70;59.30;;;;;;5011462;28;20051;-63
2021/06/28 03:11:39;;;;;;;1.20;0.98;;;25.70;59.00;;;;;;5011789;28;20387;-63
2021/06/28 03:14:06;;;;;;;2.40;1.15;;;25.70;59.20;;;;;;5011651;28;20092;-64
2021/06/28 03:16:32;;;;;;;2.08;1.30;;;25.70;59.30;;;;;;5011838;28;20038;-64
2021/06/28 03:18:59;;;;;;;3.35;1.02;;;25.70;59.20;;;;;;5011791;28;20566;-64
2021/06/28 03:21:25;;;;;;;2.65;1.25;;;25.70;59.20;;;;;;5011362;28;20120;-64
2021/06/28 03:23:51;;;;;;;2.60;1.35;;;25.70;59.20;;;;;;5012072;28;20515;-63
2021/06/28 03:26:17;;;;;;;2.03;1.10;;;25.70;59.20;;;;;;5010557;28;20449;-64
2021/06/28 03:28:43;;;;;;;1.52;1.05;;;25.70;59.30;;;;;;5010544;28;20088;-64
2021/06/28 03:31:09;;;;;;;1.80;1.38;;;25.70;59.30;;;;;;5024665;28;20033;-64
2021/06/28 03:33:35;;;;;;;1.30;1.10;;;25.70;59.20;;;;;;5036084;28;20038;-64
2021/06/28 03:36:02;;;;;;;1.20;0.98;;;25.70;59.20;;;;;;5008623;28;20474;-66
2021/06/28 03:38:27;;;;;;;2.05;1.15;;;25.70;59.20;;;;;;5011710;28;20108;-64
2021/06/28 03:40:53;;;;;;;1.67;1.20;;;25.70;59.20;;;;;;4998594;28;20057;-64
2021/06/28 03:43:19;;;;;;;2.25;1.20;;;25.70;59.30;;;;;;5006115;28;20041;-66
2021/06/28 03:45:46;;;;;;;2.50;1.40;;;25.70;59.30;;;;;;5003620;28;20029;-66
2021/06/28 03:48:13;;;;;;;2.63;1.30;;;25.70;59.30;;;;;;5009338;28;20379;-65
2021/06/28 03:50:40;;;;;;;1.10;1.00;;;25.70;59.30;;;;;;5004547;28;20037;-63
2021/06/28 03:53:06;;;;;;;2.40;1.20;;;25.70;59.20;;;;;;5000450;28;20050;-64
2021/06/28 03:55:32;;;;;;;1.75;1.45;;;25.80;59.40;;;;;;5005039;28;20033;-63
2021/06/28 03:57:58;;;;;;;0.98;0.90;;;25.70;59.30;;;;;;5001540;28;20101;-63
2021/06/28 04:00:25;;;;;;;2.80;1.27;;;25.70;59.40;;;;;;5008981;28;20080;-63
2021/06/28 04:02:52;;;;;;;1.75;1.23;;;25.70;59.30;;;;;;5009966;28;20025;-64
2021/06/28 04:05:21;;;;;;;1.63;1.20;;;25.80;59.30;;;;;;5000274;28;20025;-64
2021/06/28 04:07:47;;;;;;;2.45;1.20;;;25.70;59.20;;;;;;5005075;28;20591;-63
2021/06/28 04:10:17;;;;;;;2.45;1.23;;;25.70;59.30;;;;;;5005894;28;20041;-64
2021/06/28 04:12:43;;;;;;;1.45;1.20;;;25.70;59.40;;;;;;5006112;28;20369;-64
2021/06/28 04:15:11;;;;;;;2.13;1.27;;;25.70;59.50;;;;;;5006716;28;20084;-63
2021/06/28 04:17:42;;;;;;;2.33;1.20;;;25.70;59.30;;;;;;5002279;28;20447;-64
2021/06/28 04:20:10;;;;;;;1.63;1.30;;;25.70;59.30;;;;;;5035970;28;20056;-63
2021/06/28 04:22:37;;;;;;;2.20;1.38;;;25.70;59.30;;;;;;5004231;28;20537;-62
2021/06/28 04:25:05;;;;;;;1.27;1.13;;;25.70;59.30;;;;;;5004941;28;20087;-64
2021/06/28 04:27:31;;;;;;;1.38;1.08;;;25.70;59.30;;;;;;5003476;28;20475;-66
2021/06/28 04:29:56;;;;;;;3.17;1.58;;;25.70;59.40;;;;;;5004205;28;20157;-64
2021/06/28 04:32:22;;;;;;;1.60;1.30;;;25.70;59.30;;;;;;5002642;28;20026;-64
2021/06/28 04:34:48;;;;;;;2.42;1.23;;;25.70;59.40;;;;;;5007689;28;20037;-65
2021/06/28 04:37:13;;;;;;;4.30;1.30;;;25.70;59.50;;;;;;5001859;28;20026;-62
2021/06/28 04:39:40;;;;;;;3.38;1.45;;;25.70;59.30;;;;;;5006014;28;20065;-64
2021/06/28 04:42:06;;;;;;;1.55;1.13;;;25.70;59.10;;;;;;5006822;28;20030;-63
2021/06/28 04:44:32;;;;;;;2.58;1.25;;;25.70;59.10;;;;;;5006646;28;20034;-63
2021/06/28 04:46:58;;;;;;;2.58;1.65;;;25.70;59.30;;;;;;5004873;28;20037;-63
2021/06/28 04:49:24;;;;;;;1.50;1.02;;;25.70;59.20;;;;;;5002868;28;20037;-64
2021/06/28 04:51:50;;;;;;;1.40;1.25;;;25.70;59.30;;;;;;5031715;28;20065;-64
2021/06/28 04:54:16;;;;;;;3.63;1.55;;;25.70;59.40;;;;;;5005418;28;20424;-65
2021/06/28 04:56:41;;;;;;;2.30;1.30;;;25.70;59.40;;;;;;5002359;28;20133;-64
2021/06/28 04:59:07;;;;;;;1.75;1.30;;;25.70;59.50;;;;;;5000347;28;20034;-64
2021/06/28 05:01:33;;;;;;;2.75;1.30;;;25.70;59.60;;;;;;5002336;28;20022;-63
2021/06/28 05:03:58;;;;;;;2.30;1.63;;;25.60;59.70;;;;;;5000980;28;20120;-64
2021/06/28 05:06:24;;;;;;;1.67;1.27;;;25.70;59.60;;;;;;5003871;28;20033;-64
2021/06/28 05:08:50;;;;;;;1.50;1.30;;;25.70;59.60;;;;;;5008645;28;20045;-63
2021/06/28 05:11:16;;;;;;;1.55;1.33;;;25.60;59.60;;;;;;5008198;28;20044;-63
2021/06/28 05:13:41;;;;;;;1.92;1.20;;;25.70;59.40;;;;;;5003773;28;20050;-63
2021/06/28 05:16:07;;;;;;;3.03;1.42;;;25.80;59.30;;;;;;5005801;28;20535;-62
2021/06/28 05:18:33;;;;;;;4.78;1.95;;;25.80;59.40;;;;;;5013632;28;20517;-61
2021/06/28 05:20:58;;;;;;;3.08;1.50;;;25.80;59.40;;;;;;5014039;28;20399;-63
2021/06/28 05:23:24;;;;;;;10.82;1.50;;;25.80;59.50;;;;;;5013313;28;20073;-61
2021/06/28 05:25:50;;;;;;;3.28;1.20;;;25.70;59.60;;;;;;5014469;28;20382;-61
2021/06/28 05:28:16;;;;;;;4.75;1.90;;;25.70;59.70;;;;;;5013144;28;20343;-61
2021/06/28 05:30:41;;;;;;;3.53;1.60;;;25.70;59.80;;;;;;5014107;28;20467;-61
2021/06/28 05:33:07;;;;;;;2.50;1.45;;;25.70;59.80;;;;;;5013166;28;20037;-61
2021/06/28 05:35:33;;;;;;;2.58;1.80;;;25.70;59.80;;;;;;5013551;28;20463;-64
2021/06/28 05:37:59;;;;;;;2.50;1.60;;;25.30;60.40;;;;;;5013984;28;20026;-64
2021/06/28 05:40:24;;;;;;;3.33;1.60;;;24.80;61.60;;;;;;5012079;28;20083;-64
2021/06/28 05:42:50;;;;;;;4.45;1.90;;;24.60;62.20;;;;;;5013898;28;20026;-64
2021/06/28 05:45:16;;;;;;;2.22;1.42;;;24.60;62.40;;;;;;5012735;28;20046;-64
2021/06/28 05:47:41;;;;;;;2.25;1.52;;;24.50;62.20;;;;;;5013719;28;20026;-63
2021/06/28 05:50:12;;;;;;;3.00;1.60;;;24.50;62.50;;;;;;5012077;28;20138;-64
2021/06/28 05:52:37;;;;;;;2.28;1.60;;;24.50;63.00;;;;;;5021140;28;20513;-64
2021/06/28 05:55:03;;;;;;;1.65;1.55;;;24.50;63.00;;;;;;5015619;28;20033;-68
2021/06/28 05:57:29;;;;;;;1.58;1.33;;;24.50;62.60;;;;;;5011099;28;20026;-65
2021/06/28 05:59:55;;;;;;;3.10;2.33;;;24.50;62.50;;;;;;5018330;28;20364;-62
2021/06/28 06:02:21;;;;;;;1.98;1.77;;;24.60;63.10;;;;;;5014623;28;20097;-64
2021/06/28 06:04:47;;;;;;;1.60;1.50;;;24.50;62.30;;;;;;5026358;28;20045;-64
2021/06/28 06:07:13;;;;;;;2.13;1.80;;;24.60;62.20;;;;;;5012162;28;20029;-64
2021/06/28 06:09:39;;;;;;;3.25;2.47;;;24.60;62.20;;;;;;5010829;28;20116;-64
2021/06/28 06:12:05;;;;;;;2.72;1.40;;;24.60;62.10;;;;;;5012678;28;20030;-67
2021/06/28 06:14:31;;;;;;;3.03;1.80;;;24.60;62.00;;;;;;5013123;28;20044;-64
2021/06/28 06:16:57;;;;;;;1.67;1.58;;;24.60;62.50;;;;;;5012457;28;20033;-64
2021/06/28 06:19:23;;;;;;;2.50;1.38;;;24.60;62.60;;;;;;5011448;28;20032;-64
2021/06/28 06:21:49;;;;;;;2.67;1.42;;;24.60;62.40;;;;;;5019854;28;20038;-64
2021/06/28 06:24:15;;;;;;;2.90;1.60;;;24.60;62.30;;;;;;5011644;28;20044;-63
2021/06/28 06:26:42;;;;;;;4.57;1.80;;;24.60;62.10;;;;;;5013483;28;20026;-64
2021/06/28 06:29:08;;;;;;;2.30;1.80;;;24.50;62.00;;;;;;5009776;28;20042;-66
2021/06/28 06:31:33;;;;;;;2.97;1.55;;;24.60;61.90;;;;;;5011350;28;20188;-65
2021/06/28 06:34:00;;;;;;;4.30;2.15;;;24.60;62.50;;;;;;5012361;28;20034;-65
2021/06/28 06:36:25;;;;;;;3.30;1.80;;;24.60;62.50;;;;;;5011960;28;20095;-65
2021/06/28 06:38:51;;;;;;;4.13;1.75;;;24.60;62.70;;;;;;5012755;28;20034;-65
2021/06/28 06:41:17;;;;;;;3.83;1.90;;;24.60;63.00;;;;;;5012027;28;20034;-66
2021/06/28 06:43:43;;;;;;;3.92;1.90;;;24.60;63.00;;;;;;5022528;28;20040;-65
2021/06/28 06:46:09;;;;;;;5.40;1.73;;;24.70;63.10;;;;;;5015742;28;20112;-65
2021/06/28 06:48:35;;;;;;;4.95;2.30;;;24.70;63.20;;;;;;5012558;28;20105;-65
2021/06/28 06:51:00;;;;;;;6.38;2.63;;;24.70;63.70;;;;;;5016629;28;20040;-66
2021/06/28 06:53:26;;;;;;;5.70;2.50;;;24.70;63.70;;;;;;5010672;28;20045;-65
2021/06/28 06:55:52;;;;;;;3.88;2.75;;;24.70;64.10;;;;;;5012028;28;20034;-66
2021/06/28 06:58:18;;;;;;;4.03;2.15;;;24.80;64.20;;;;;;5011535;28;20391;-67
2021/06/28 07:00:44;;;;;;;4.00;2.17;;;24.80;63.90;;;;;;5011956;28;20172;-67
2021/06/28 07:03:10;;;;;;;2.33;2.13;;;24.80;63.30;;;;;;5011326;28;20034;-65
2021/06/28 07:05:36;;;;;;;1.95;1.75;;;24.80;62.10;;;;;;5011896;28;20124;-65
2021/06/28 07:08:03;;;;;;;2.13;1.55;;;24.80;61.60;;;;;;5006044;28;20138;-65
2021/06/28 07:10:28;;;;;;;1.70;1.60;;;24.80;61.00;;;;;;5010796;28;20065;-65
2021/06/28 07:12:54;;;;;;;2.97;1.98;;;24.90;60.90;;;;;;5011203;28;20116;-65
2021/06/28 07:15:21;;;;;;;3.92;1.48;;;24.90;60.90;;;;;;5010842;28;20026;-65
2021/06/28 07:17:47;;;;;;;2.42;1.40;;;24.90;61.00;;;;;;5012232;28;20026;-65
2021/06/28 07:20:18;;;;;;;2.45;1.58;;;24.90;60.90;;;;;;5041323;28;20112;-65
2021/06/28 07:22:44;;;;;;;1.67;1.27;;;24.90;60.80;;;;;;5012655;28;20042;-66
2021/06/28 07:25:13;;;;;;;3.45;1.63;;;24.90;60.70;;;;;;5010682;28;20037;-66
2021/06/28 07:27:39;;;;;;;2.13;1.80;;;24.90;60.40;;;;;;5013311;28;20107;-65
2021/06/28 07:30:11;;;;;;;2.03;1.65;;;24.90;60.50;;;;;;5009588;28;20100;-69
2021/06/28 07:32:38;;;;;;;2.72;1.75;;;25.00;61.00;;;;;;5010690;28;20030;-66
2021/06/28 07:35:06;;;;;;;2.20;1.63;;;25.00;60.70;;;;;;5010188;28;20042;-66
2021/06/28 07:37:32;;;;;;;2.15;1.95;;;25.00;60.70;;;;;;5010898;28;20026;-65
2021/06/28 07:39:57;;;;;;;1.73;1.50;;;25.00;60.60;;;;;;5026533;28;20193;-64
2021/06/28 07:42:25;;;;;;;5.75;1.75;;;25.00;60.40;;;;;;5011514;28;20037;-62
2021/06/28 07:44:50;;;;;;;4.70;1.60;;;25.10;60.60;;;;;;5011356;28;20026;-62
2021/06/28 07:47:16;;;;;;;3.65;1.70;;;25.20;60.00;;;;;;5004337;28;20541;-62
2021/06/28 07:49:42;;;;;;;2.95;1.80;;;25.30;59.80;;;;;;5012237;28;20026;-63
2021/06/28 07:52:09;;;;;;;3.17;1.80;;;25.40;59.60;;;;;;4993986;28;20058;-64
2021/06/28 07:54:39;;;;;;;2.83;1.70;;;25.50;59.80;;;;;;5010378;28;20036;-62
2021/06/28 07:57:05;;;;;;;2.95;1.70;;;25.50;60.00;;;;;;5010789;28;20026;-64
2021/06/28 07:59:31;;;;;;;2.22;1.77;;;25.50;59.70;;;;;;5009795;28;20026;-62
2021/06/28 08:01:57;;;;;;;3.80;1.80;;;25.60;59.70;;;;;;5010958;28;20131;-62
2021/06/28 08:04:26;;;;;;;1.80;1.52;;;25.50;59.70;;;;;;5008686;28;20038;-62
2021/06/28 08:06:52;;;;;;;3.28;1.60;;;25.60;59.80;;;;;;5010213;28;20430;-62
2021/06/28 08:09:17;;;;;;;4.05;1.77;;;25.60;59.80;;;;;;5009705;28;20026;-63
2021/06/28 08:11:43;;;;;;;2.08;1.58;;;25.60;59.70;;;;;;5011306;28;20041;-62
2021/06/28 08:14:10;;;;;;;3.83;1.58;;;25.70;59.70;;;;;;5010381;28;20026;-64
2021/06/28 08:16:35;;;;;;;4.07;2.25;;;25.70;59.70;;;;;;5010483;28;20029;-62
2021/06/28 08:19:01;;;;;;;3.88;1.55;;;25.70;59.80;;;;;;5011528;28;20030;-62
2021/06/28 08:21:27;;;;;;;2.70;1.48;;;25.70;59.70;;;;;;5015908;28;20133;-62
2021/06/28 08:23:53;;;;;;;2.03;1.65;;;25.70;59.70;;;;;;5010942;28;20045;-62
2021/06/28 08:26:18;;;;;;;2.72;1.60;;;25.70;59.70;;;;;;5010005;28;20175;-62
2021/06/28 08:28:45;;;;;;;4.40;1.40;;;25.70;59.50;;;;;;5011035;28;20061;-61
2021/06/28 08:31:12;;;;;;;1.95;1.25;;;25.70;59.50;;;;;;5010619;28;20059;-63
2021/06/28 08:33:38;;;;;;;3.45;1.55;;;25.70;59.40;;;;;;5011571;28;20026;-63
2021/06/28 08:36:05;;;;;;;1.52;1.33;;;25.70;59.30;;;;;;5011715;28;20426;-60
2021/06/28 08:38:30;;;;;;;1.65;1.30;;;25.70;59.20;;;;;;5011361;28;20034;-60
2021/06/28 08:40:56;;;;;;;2.65;1.50;;;25.70;59.10;;;;;;5011763;28;20025;-60
2021/06/28 08:43:22;;;;;;;1.80;1.30;;;25.70;59.00;;;;;;5014525;28;20038;-60
2021/06/28 08:45:48;;;;;;;3.42;2.15;;;25.70;59.00;;;;;;5014796;28;20029;-60
2021/06/28 08:48:14;;;;;;;3.70;1.40;;;25.70;58.90;;;;;;5014537;28;20038;-60
2021/06/28 08:50:41;;;;;;;2.25;1.45;;;25.80;59.00;;;;;;5017593;28;20119;-60
2021/06/28 08:53:09;;;;;;;2.63;1.30;;;25.70;58.90;;;;;;5016242;28;20053;-62
2021/06/28 08:55:36;;;;;;;2.03;1.30;;;25.80;59.00;;;;;;5014972;28;20026;-60
2021/06/28 08:58:03;;;;;;;2.40;1.40;;;25.80;58.90;;;;;;5014256;28;20084;-60
2021/06/28 09:00:29;;;;;;;3.22;1.60;;;25.80;58.80;;;;;;5014287;28;20046;-60
2021/06/28 09:02:58;;;;;;;2.97;1.30;;;25.80;58.80;;;;;;5014909;28;20026;-60
2021/06/28 09:05:23;;;;;;;1.67;1.50;;;25.80;58.60;;;;;;5013804;28;20045;-60
2021/06/28 09:08:08;;;;;;;3.20;1.40;;;25.80;58.60;;;;;;5013646;28;20033;-60
2021/06/28 09:10:37;;;;;;;1.65;1.30;;;25.80;58.70;;;;;;5014901;28;20029;-60
2021/06/28 09:13:03;;;;;;;1.65;1.45;;;25.80;58.60;;;;;;5014734;28;20041;-61
2021/06/28 09:15:43;;;;;;;1.60;1.20;;;25.90;58.50;;;;;;5012882;28;20021;-60
2021/06/28 09:18:26;;;;;;;3.47;1.30;;;25.90;59.20;;;;;;5013407;28;20030;-62
2021/06/28 09:21:08;;;;;;;1.52;1.20;;;25.90;58.50;;;;;;5018233;28;20021;-60
2021/06/28 09:23:38;;;;;;;2.72;1.65;;;25.90;58.60;;;;;;5034286;28;20119;-60
2021/06/28 09:26:17;;;;;;;2.10;1.48;;;25.90;58.60;;;;;;5034213;28;20036;-60
2021/06/28 09:28:45;;;;;;;3.15;1.50;;;25.90;58.60;;;;;;5032978;28;20041;-60
2021/06/28 09:31:33;;;;;;;2.17;1.30;;;25.90;58.60;;;;;;5033268;28;20043;-60
2021/06/28 09:34:05;;;;;;;1.48;1.20;;;25.90;58.60;;;;;;5034093;28;20395;-60
2021/06/28 09:36:31;;;;;;;1.83;1.20;;;25.90;58.50;;;;;;5033519;28;20028;-60
2021/06/28 09:38:57;;;;;;;1.55;1.23;;;25.90;58.60;;;;;;5034127;28;20463;-60
2021/06/28 09:41:27;;;;;;;2.10;1.63;;;25.90;58.60;;;;;;5032694;28;20030;-60
2021/06/28 09:43:59;;;;;;;1.60;1.40;;;25.90;58.60;;;;;;5033858;28;20029;-60
2021/06/28 09:46:25;;;;;;;2.33;1.65;;;25.90;58.60;;;;;;5033193;28;20632;-60
2021/06/28 09:48:53;;;;;;;1.40;1.20;;;25.90;58.60;;;;;;5033574;28;20025;-60
2021/06/28 09:51:28;;;;;;;2.00;1.13;;;25.90;58.60;;;;;;5032883;28;20048;-60
2021/06/28 09:54:16;;;;;;;3.00;1.60;;;25.90;58.50;;;;;;5033835;28;20064;-60
2021/06/28 09:56:53;;;;;;;2.83;1.90;;;25.90;58.50;;;;;;5033782;28;20028;-60
2021/06/28 09:59:22;;;;;;;3.00;2.25;;;25.90;58.30;;;;;;5030538;28;20029;-61
2021/06/28 10:01:49;;;;;;;3.60;3.22;;;25.90;58.40;;;;;;5033665;28;20022;-61
2021/06/28 10:04:41;;;;;;;7.10;4.68;;;25.90;58.30;;;;;;5032751;28;20033;-61
2021/06/28 10:07:20;;;;;;;7.60;5.82;;;25.90;58.20;;;;;;5033132;28;20491;-61
2021/06/28 10:10:07;;;;;;;8.98;7.03;;;25.90;58.20;;;;;;4994247;28;20030;-60
2021/06/28 10:12:32;;;;;;;11.48;8.00;;;26.00;58.30;;;;;;4989640;28;20057;-60
2021/06/28 10:14:58;;;;;;;13.50;8.27;;;25.90;58.20;;;;;;4994051;28;20476;-60
2021/06/28 10:17:25;;;;;;;9.57;7.68;;;26.00;58.20;;;;;;4993224;28;20035;-59
2021/06/28 10:19:51;;;;;;;11.88;7.25;;;26.00;58.10;;;;;;4994107;28;20105;-59
2021/06/28 10:22:17;;;;;;;9.30;6.60;;;25.90;57.90;;;;;;5024564;28;20168;-60
2021/06/28 10:24:43;;;;;;;10.90;6.07;;;26.00;57.80;;;;;;5033170;28;20481;-61
2021/06/28 10:27:09;;;;;;;7.00;5.97;;;26.00;57.90;;;;;;5032447;28;20108;-61
2021/06/28 10:29:35;;;;;;;9.25;6.65;;;26.00;58.10;;;;;;5015976;28;20080;-60
2021/06/28 10:32:10;;;;;;;8.98;5.95;;;26.10;58.40;;;;;;5014787;28;20037;-61
2021/06/28 10:34:37;;;;;;;7.32;5.38;;;26.10;58.20;;;;;;5013589;28;20038;-61
2021/06/28 10:37:23;;;;;;;6.15;4.78;;;26.10;58.00;;;;;;5012998;28;20036;-61
2021/06/28 10:39:56;;;;;;;7.40;5.72;;;26.10;57.40;;;;;;5013174;28;20033;-60
2021/06/28 10:42:30;;;;;;;7.70;5.03;;;26.10;57.70;;;;;;5012768;28;20774;-61
2021/06/28 10:44:56;;;;;;;7.35;4.05;;;26.20;57.40;;;;;;5012811;28;20049;-60
2021/06/28 10:47:21;;;;;;;6.18;4.18;;;26.10;57.40;;;;;;5012209;28;20022;-60
2021/06/28 10:49:52;;;;;;;6.60;3.50;;;26.10;57.20;;;;;;5012560;28;20042;-60
2021/06/28 10:52:36;;;;;;;4.05;3.33;;;26.10;56.70;;;;;;5027912;28;20441;-61
2021/06/28 10:55:17;;;;;;;5.18;3.58;;;26.20;56.10;;;;;;5032633;28;20026;-60
2021/06/28 10:57:48;;;;;;;5.75;3.45;;;26.20;56.40;;;;;;5031603;28;20528;-60
2021/06/28 11:00:15;;;;;;;4.75;3.17;;;26.20;56.10;;;;;;5031681;28;20044;-61
2021/06/28 11:02:42;;;;;;;4.88;3.03;;;26.20;56.20;;;;;;5033060;28;20108;-60
2021/06/28 11:05:14;;;;;;;3.97;2.97;;;26.20;55.90;;;;;;5031701;28;20080;-64
2021/06/28 11:07:45;;;;;;;5.57;2.85;;;26.20;55.50;;;;;;5011487;28;20026;-60
2021/06/28 11:10:16;;;;;;;3.75;2.67;;;26.20;55.30;;;;;;5012147;28;20471;-62
2021/06/28 11:12:42;;;;;;;3.80;2.42;;;26.30;55.30;;;;;;5013272;28;20113;-61
2021/06/28 11:15:20;;;;;;;3.55;2.50;;;26.30;55.30;;;;;;5012504;28;20519;-64
2021/06/28 11:17:46;;;;;;;3.08;2.50;;;26.30;55.50;;;;;;5012861;28;20088;-61
2021/06/28 11:20:26;;;;;;;2.55;2.00;;;26.20;55.40;;;;;;5010681;28;20037;-64
2021/06/28 11:23:20;;;;;;;3.08;2.78;;;26.30;55.40;;;;;;4993193;28;20109;-61
2021/06/28 11:25:56;;;;;;;3.95;2.15;;;26.30;55.40;;;;;;4987746;28;20054;-61
2021/06/28 11:28:34;;;;;;;3.30;2.22;;;26.30;55.50;;;;;;4993767;28;20018;-61
2021/06/28 11:31:05;;;;;;;2.65;2.00;;;26.30;55.10;;;;;;5012362;28;20034;-61
2021/06/28 11:33:31;;;;;;;3.05;1.85;;;26.30;55.20;;;;;;5011786;28;20091;-61
2021/06/28 11:35:57;;;;;;;1.65;1.50;;;26.40;55.40;;;;;;5011867;28;20116;-61
2021/06/28 11:38:43;;;;;;;2.65;1.85;;;26.30;55.00;;;;;;5010282;28;20089;-61
2021/06/28 11:41:08;;;;;;;2.40;2.17;;;26.40;55.30;;;;;;5011295;28;20049;-65
2021/06/28 11:43:50;;;;;;;2.00;1.75;;;26.40;55.00;;;;;;5010300;28;20042;-61
2021/06/28 11:46:25;;;;;;;2.60;1.50;;;26.40;55.00;;;;;;5011059;28;20026;-62
2021/06/28 11:49:02;;;;;;;1.73;1.60;;;26.40;54.90;;;;;;5011237;28;20025;-61
2021/06/28 11:51:41;;;;;;;2.72;1.98;;;26.40;54.70;;;;;;5010700;28;20041;-61
2021/06/28 11:54:10;;;;;;;2.60;1.60;;;26.50;55.20;;;;;;5011505;28;20057;-61
2021/06/28 11:56:43;;;;;;;2.42;1.88;;;26.40;55.00;;;;;;5010878;28;20037;-61
2021/06/28 11:59:11;;;;;;;3.33;2.00;;;26.40;55.20;;;;;;5010494;28;20025;-65
2021/06/28 12:01:40;;;;;;;3.15;1.73;;;26.40;55.20;;;;;;5011945;28;20036;-61
2021/06/28 12:04:08;;;;;;;3.50;1.70;;;26.40;55.60;;;;;;5011354;28;20391;-61
2021/06/28 12:06:38;;;;;;;2.50;1.65;;;26.50;55.60;;;;;;5010469;28;20037;-61
2021/06/28 12:09:08;;;;;;;3.58;1.75;;;26.40;55.60;;;;;;5010501;28;20037;-61
2021/06/28 12:11:36;;;;;;;2.00;1.50;;;26.40;55.50;;;;;;5010157;28;20034;-61
2021/06/28 12:14:02;;;;;;;2.15;1.60;;;26.40;55.50;;;;;;5011362;28;20034;-61
2021/06/28 12:16:28;;;;;;;2.97;1.75;;;26.40;55.40;;;;;;5013361;28;20026;-61
2021/06/28 12:19:08;;;;;;;1.77;1.50;;;26.40;55.50;;;;;;5015107;28;20471;-61
2021/06/28 12:21:37;;;;;;;2.28;2.08;;;26.40;55.40;;;;;;5014437;28;20038;-61
2021/06/28 12:24:14;;;;;;;2.17;1.55;;;26.40;55.30;;;;;;5014922;28;20041;-61
2021/06/28 12:26:58;;;;;;;1.77;1.67;;;26.40;55.50;;;;;;5014908;28;20532;-61
2021/06/28 12:29:50;;;;;;;2.45;1.70;;;26.40;55.40;;;;;;5013273;28;20030;-61
2021/06/28 12:32:27;;;;;;;2.08;1.80;;;26.50;55.50;;;;;;5013918;28;20032;-61
2021/06/28 12:34:53;;;;;;;2.63;1.75;;;26.40;55.60;;;;;;5014872;28;20030;-61
2021/06/28 12:37:47;;;;;;;2.35;1.58;;;26.50;55.60;;;;;;5013906;28;20035;-61
2021/06/28 12:40:20;;;;;;;2.15;1.80;;;26.50;55.70;;;;;;5013965;28;20135;-62
2021/06/28 12:42:54;;;;;;;3.03;1.77;;;26.50;55.60;;;;;;5014815;28;20038;-61
2021/06/28 12:45:25;;;;;;;2.30;1.80;;;26.50;55.60;;;;;;5013232;28;20038;-61
2021/06/28 12:47:56;;;;;;;3.22;1.75;;;26.50;55.60;;;;;;5014965;28;20030;-61
2021/06/28 12:50:30;;;;;;;2.05;1.75;;;26.50;55.70;;;;;;5014119;28;20117;-61
2021/06/28 12:52:56;;;;;;;2.00;1.80;;;26.50;55.80;;;;;;5019647;28;20443;-61